sensor_id;sensor_type;location;lat;lon;timestamp;pressure;altitude;pressure_sealevel;temperature;humidity
3664;BME280;1848;51.042;7.066;2022-08-21T00:01:41;100468.56;;;15.40;100.00
3664;BME280;1848;51.042;7.066;2022-08-21T00:04:08;100460.50;;;15.40;100.00
3664;BME280;1848;51.042;7.066;2022-08-21T00:06:36;100464.25;;;15.39;100.00
3664;BME280;1848;51.042;7.066;2022-08-21T00:09:05;100452.88;;;15.37;99.90
3664;BME280;1848;51.042;7.066;2022-08-21T00:11:33;100450.38;;;15.35;99.91
3664;BME280;1848;51.042;7.066;2022-08-21T00:14:02;100452.22;;;15.35;100.00
3664;BME280;1848;51.042;7.066;2022-08-21T00:16:29;100446.47;;;15.31;100.00
3664;BME280;1848;51.042;7.066;2022-08-21T00:18:55;100450.88;;;15.26;100.00
3664;BME280;1848;51.042;7.066;2022-08-21T00:21:22;100445.72;;;15.17;100.00
3664;BME280;1848;51.042;7.066;2022-08-21T00:23:48;100441.44;;;15.10;100.00
3664;BME280;1848;51.042;7.066;2022-08-21T00:26:14;100446.44;;;15.06;100.00
3664;BME280;1848;51.042;7.066;2022-08-21T00:28:41;100442.94;;;15.06;100.00
3664;BME280;1848;51.042;7.066;2022-08-21T00:31:08;100443.16;;;15.04;100.00
3664;BME280;1848;51.042;7.066;2022-08-21T00:33:34;100439.59;;;15.03;100.00
3664;BME280;1848;51.042;7.066;2022-08-21T00:36:01;100423.31;;;14.92;100.00
3664;BME280;1848;51.042;7.066;2022-08-21T00:38:27;100427.41;;;15.01;100.00
3664;BME280;1848;51.042;7.066;2022-08-21T00:40:57;100429.50;;;14.99;100.00
3664;BME280;1848;51.042;7.066;2022-08-21T00:43:45;100430.16;;;14.94;100.00
3664;BME280;1848;51.042;7.066;2022-08-21T00:46:11;100430.38;;;14.93;100.00
3664;BME280;1848;51.042;7.066;2022-08-21T00:48:38;100437.84;;;14.91;100.00
3664;BME280;1848;51.042;7.066;2022-08-21T00:51:07;100439.53;;;14.85;100.00
3664;BME280;1848;51.042;7.066;2022-08-21T00:53:36;100431.66;;;14.83;100.00
3664;BME280;1848;51.042;7.066;2022-08-21T00:56:06;100449.72;;;14.76;100.00
3664;BME280;1848;51.042;7.066;2022-08-21T00:58:37;100436.31;;;14.70;100.00
3664;BME280;1848;51.042;7.066;2022-08-21T01:01:07;100435.72;;;14.61;100.00
3664;BME280;1848;51.042;7.066;2022-08-21T01:03:35;100420.22;;;14.43;100.00
3664;BME280;1848;51.042;7.066;2022-08-21T01:06:04;100438.22;;;14.49;100.00
3664;BME280;1848;51.042;7.066;2022-08-21T01:08:31;100439.47;;;14.40;100.00
3664;BME280;1848;51.042;7.066;2022-08-21T01:10:59;100436.00;;;14.33;100.00
3664;BME280;1848;51.042;7.066;2022-08-21T01:13:30;100442.66;;;14.30;100.00
3664;BME280;1848;51.042;7.066;2022-08-21T01:15:59;100449.44;;;14.33;100.00
3664;BME280;1848;51.042;7.066;2022-08-21T01:18:27;100446.34;;;14.36;100.00
3664;BME280;1848;51.042;7.066;2022-08-21T01:21:04;100456.69;;;14.39;100.00
3664;BME280;1848;51.042;7.066;2022-08-21T01:23:31;100456.03;;;14.43;100.00
3664;BME280;1848;51.042;7.066;2022-08-21T01:25:57;100446.94;;;14.44;100.00
3664;BME280;1848;51.042;7.066;2022-08-21T01:28:24;100433.91;;;14.35;100.00
3664;BME280;1848;51.042;7.066;2022-08-21T01:30:51;100439.25;;;14.48;100.00
3664;BME280;1848;51.042;7.066;2022-08-21T01:33:22;100444.84;;;14.46;100.00
3664;BME280;1848;51.042;7.066;2022-08-21T01:35:50;100435.97;;;14.39;100.00
3664;BME280;1848;51.042;7.066;2022-08-21T01:38:17;100441.94;;;14.48;100.00
3664;BME280;1848;51.042;7.066;2022-08-21T01:40:43;100442.34;;;14.45;100.00
3664;BME280;1848;51.042;7.066;2022-08-21T01:43:10;100448.59;;;14.45;100.00
3664;BME280;1848;51.042;7.066;2022-08-21T01:45:36;100442.81;;;14.42;100.00
3664;BME280;1848;51.042;7.066;2022-08-21T01:48:03;100442.38;;;14.38;100.00
3664;BME280;1848;51.042;7.066;2022-08-21T01:50:30;100438.06;;;14.37;100.00
3664;BME280;1848;51.042;7.066;2022-08-21T01:52:56;100435.56;;;14.36;100.00
3664;BME280;1848;51.042;7.066;2022-08-21T01:55:23;100432.69;;;14.31;100.00
3664;BME280;1848;51.042;7.066;2022-08-21T01:57:50;100432.91;;;14.29;100.00
3664;BME280;1848;51.042;7.066;2022-08-21T02:00:19;100435.81;;;14.27;100.00
3664;BME280;1848;51.042;7.066;2022-08-21T02:02:46;100432.50;;;14.25;100.00
3664;BME280;1848;51.042;7.066;2022-08-21T02:05:12;100432.72;;;14.24;100.00
3664;BME280;1848;51.042;7.066;2022-08-21T02:07:41;100435.81;;;14.21;100.00
3664;BME280;1848;51.042;7.066;2022-08-21T02:10:09;100432.72;;;14.17;100.00
3664;BME280;1848;51.042;7.066;2022-08-21T02:12:37;100432.13;;;14.15;100.00
3664;BME280;1848;51.042;7.066;2022-08-21T02:15:06;100436.69;;;14.15;100.00
3664;BME280;1848;51.042;7.066;2022-08-21T02:17:41;100411.91;;;13.99;100.00
3664;BME280;1848;51.042;7.066;2022-08-21T02:20:09;100430.91;;;14.11;100.00
3664;BME280;1848;51.042;7.066;2022-08-21T02:22:35;100425.75;;;14.09;100.00
3664;BME280;1848;51.042;7.066;2022-08-21T02:25:02;100405.28;;;13.95;100.00
3664;BME280;1848;51.042;7.066;2022-08-21T02:27:29;100434.81;;;14.08;100.00
3664;BME280;1848;51.042;7.066;2022-08-21T02:29:59;100426.75;;;14.08;100.00
3664;BME280;1848;51.042;7.066;2022-08-21T02:32:25;100426.16;;;14.06;100.00
3664;BME280;1848;51.042;7.066;2022-08-21T02:34:52;100413.97;;;13.97;100.00
3664;BME280;1848;51.042;7.066;2022-08-21T02:37:19;100426.56;;;14.03;100.00
3664;BME280;1848;51.042;7.066;2022-08-21T02:39:46;100423.25;;;14.01;100.00
3664;BME280;1848;51.042;7.066;2022-08-21T02:42:12;100428.84;;;14.00;100.00
3664;BME280;1848;51.042;7.066;2022-08-21T02:44:39;100422.88;;;13.98;100.00
3664;BME280;1848;51.042;7.066;2022-08-21T02:47:05;100420.19;;;13.98;100.00
3664;BME280;1848;51.042;7.066;2022-08-21T02:49:32;100418.50;;;13.97;100.00
3664;BME280;1848;51.042;7.066;2022-08-21T02:51:58;100417.09;;;13.94;100.00
3664;BME280;1848;51.042;7.066;2022-08-21T02:54:25;100423.47;;;13.93;100.00
3664;BME280;1848;51.042;7.066;2022-08-21T02:56:51;100408.00;;;13.88;100.00
3664;BME280;1848;51.042;7.066;2022-08-21T02:59:18;100412.72;;;13.93;100.00
3664;BME280;1848;51.042;7.066;2022-08-21T03:01:44;100419.38;;;13.90;100.00
3664;BME280;1848;51.042;7.066;2022-08-21T03:04:11;100417.72;;;13.89;100.00
3664;BME280;1848;51.042;7.066;2022-08-21T03:06:37;100405.72;;;13.85;100.00
3664;BME280;1848;51.042;7.066;2022-08-21T03:09:03;100415.03;;;13.89;100.00
3664;BME280;1848;51.042;7.066;2022-08-21T03:11:30;100415.84;;;13.90;100.00
3664;BME280;1848;51.042;7.066;2022-08-21T03:13:56;100416.06;;;13.88;100.00
3664;BME280;1848;51.042;7.066;2022-08-21T03:16:23;100414.19;;;13.89;100.00
3664;BME280;1848;51.042;7.066;2022-08-21T03:18:49;100412.53;;;13.88;100.00
3664;BME280;1848;51.042;7.066;2022-08-21T03:21:15;100406.16;;;13.82;100.00
3664;BME280;1848;51.042;7.066;2022-08-21T03:23:43;100410.47;;;13.90;100.00
3664;BME280;1848;51.042;7.066;2022-08-21T03:26:10;100408.81;;;13.89;100.00
3664;BME280;1848;51.042;7.066;2022-08-21T03:28:37;100412.53;;;13.88;100.00
3664;BME280;1848;51.042;7.066;2022-08-21T03:31:03;100412.75;;;13.86;100.00
3664;BME280;1848;51.042;7.066;2022-08-21T03:33:31;100409.44;;;13.84;100.00
3664;BME280;1848;51.042;7.066;2022-08-21T03:36:05;100405.72;;;13.85;100.00
3664;BME280;1848;51.042;7.066;2022-08-21T03:38:33;100414.63;;;13.86;100.00
3664;BME280;1848;51.042;7.066;2022-08-21T03:41:00;100415.66;;;13.85;100.00
3664;BME280;1848;51.042;7.066;2022-08-21T03:43:27;100411.53;;;13.82;100.00
3664;BME280;1848;51.042;7.066;2022-08-21T03:45:58;100407.41;;;13.80;100.00
3664;BME280;1848;51.042;7.066;2022-08-21T03:48:24;100411.31;;;13.77;100.00
3664;BME280;1848;51.042;7.066;2022-08-21T03:50:52;100409.91;;;13.75;100.00
3664;BME280;1848;51.042;7.066;2022-08-21T03:53:19;100413.00;;;13.71;100.00
3664;BME280;1848;51.042;7.066;2022-08-21T03:55:47;100415.06;;;13.69;100.00
3664;BME280;1848;51.042;7.066;2022-08-21T03:58:16;100412.38;;;13.69;100.00
3664;BME280;1848;51.042;7.066;2022-08-21T04:00:47;100411.34;;;13.57;100.00
3664;BME280;1848;51.042;7.066;2022-08-21T04:03:15;100421.88;;;13.65;100.00
3664;BME280;1848;51.042;7.066;2022-08-21T04:05:42;100427.66;;;13.62;100.00
3664;BME280;1848;51.042;7.066;2022-08-21T04:08:08;100428.91;;;13.60;100.00
3664;BME280;1848;51.042;7.066;2022-08-21T04:10:37;100431.59;;;13.60;100.00
3664;BME280;1848;51.042;7.066;2022-08-21T04:13:05;100430.78;;;13.59;100.00
3664;BME280;1848;51.042;7.066;2022-08-21T04:15:32;100426.44;;;13.58;100.00
3664;BME280;1848;51.042;7.066;2022-08-21T04:17:59;100430.16;;;13.57;100.00
3664;BME280;1848;51.042;7.066;2022-08-21T04:20:26;100434.50;;;13.58;100.00
3664;BME280;1848;51.042;7.066;2022-08-21T04:22:52;100408.03;;;13.42;100.00
3664;BME280;1848;51.042;7.066;2022-08-21T04:25:21;100428.09;;;13.52;100.00
3664;BME280;1848;51.042;7.066;2022-08-21T04:27:48;100432.63;;;13.52;100.00
3664;BME280;1848;51.042;7.066;2022-08-21T04:30:15;100418.38;;;13.51;100.00
3664;BME280;1848;51.042;7.066;2022-08-21T04:32:47;100430.78;;;13.52;100.00
3664;BME280;1848;51.042;7.066;2022-08-21T04:35:17;100410.94;;;13.33;100.00
3664;BME280;1848;51.042;7.066;2022-08-21T04:37:45;100435.53;;;13.44;100.00
3664;BME280;1848;51.042;7.066;2022-08-21T04:40:13;100436.34;;;13.44;100.00
3664;BME280;1848;51.042;7.066;2022-08-21T04:42:44;100437.59;;;13.42;100.00
3664;BME280;1848;51.042;7.066;2022-08-21T04:45:20;100427.06;;;13.33;100.00
3664;BME280;1848;51.042;7.066;2022-08-21T04:47:50;100445.44;;;13.43;100.00
3664;BME280;1848;51.042;7.066;2022-08-21T04:50:19;100446.28;;;13.44;100.00
3664;BME280;1848;51.042;7.066;2022-08-21T04:52:48;100443.81;;;13.49;100.00
3664;BME280;1848;51.042;7.066;2022-08-21T04:55:16;100447.09;;;13.51;100.00
3664;BME280;1848;51.042;7.066;2022-08-21T04:57:44;100444.84;;;13.55;100.00
3664;BME280;1848;51.042;7.066;2022-08-21T05:00:15;100442.75;;;13.57;100.00
3664;BME280;1848;51.042;7.066;2022-08-21T05:02:44;100448.53;;;13.60;100.00
3664;BME280;1848;51.042;7.066;2022-08-21T05:05:13;100449.16;;;13.62;100.00
3664;BME280;1848;51.042;7.066;2022-08-21T05:07:41;100459.50;;;13.65;100.00
3664;BME280;1848;51.042;7.066;2022-08-21T05:10:09;100439.47;;;13.55;100.00
3664;BME280;1848;51.042;7.066;2022-08-21T05:12:40;100470.03;;;13.74;100.00
3664;BME280;1848;51.042;7.066;2022-08-21T05:15:08;100459.91;;;13.76;100.00
3664;BME280;1848;51.042;7.066;2022-08-21T05:17:39;100455.16;;;13.71;100.00
3664;BME280;1848;51.042;7.066;2022-08-21T05:20:07;100475.00;;;13.83;100.00
3664;BME280;1848;51.042;7.066;2022-08-21T05:22:34;100465.06;;;13.84;100.00
3664;BME280;1848;51.042;7.066;2022-08-21T05:25:00;100467.34;;;13.87;100.00
3664;BME280;1848;51.042;7.066;2022-08-21T05:27:27;100451.44;;;13.79;100.00
3664;BME280;1848;51.042;7.066;2022-08-21T05:29:57;100472.28;;;13.90;100.00
3664;BME280;1848;51.042;7.066;2022-08-21T05:32:23;100471.47;;;13.89;100.00
3664;BME280;1848;51.042;7.066;2022-08-21T05:34:50;100470.03;;;13.94;100.00
3664;BME280;1848;51.042;7.066;2022-08-21T05:37:16;100461.31;;;13.92;100.00
3664;BME280;1848;51.042;7.066;2022-08-21T05:39:43;100469.38;;;13.98;100.00
3664;BME280;1848;51.042;7.066;2022-08-21T05:42:29;100464.22;;;14.03;100.00
3664;BME280;1848;51.042;7.066;2022-08-21T05:44:56;100467.50;;;14.05;100.00
3664;BME280;1848;51.042;7.066;2022-08-21T05:47:24;100463.59;;;14.08;100.00
3664;BME280;1848;51.042;7.066;2022-08-21T05:49:50;100466.47;;;14.13;100.00
3664;BME280;1848;51.042;7.066;2022-08-21T05:52:20;100458.19;;;14.15;100.00
3664;BME280;1848;51.042;7.066;2022-08-21T05:54:47;100452.41;;;14.11;100.00
3664;BME280;1848;51.042;7.066;2022-08-21T05:57:14;100456.72;;;14.19;100.00
3664;BME280;1848;51.042;7.066;2022-08-21T05:59:40;100468.94;;;14.28;100.00
3664;BME280;1848;51.042;7.066;2022-08-21T06:02:07;100475.31;;;14.34;100.00
3664;BME280;1848;51.042;7.066;2022-08-21T06:04:38;100477.34;;;14.38;100.00
3664;BME280;1848;51.042;7.066;2022-08-21T06:07:05;100473.25;;;14.36;100.00
3664;BME280;1848;51.042;7.066;2022-08-21T06:09:32;100474.03;;;14.50;100.00
3664;BME280;1848;51.042;7.066;2022-08-21T06:12:03;100475.88;;;14.56;100.00
3664;BME280;1848;51.042;7.066;2022-08-21T06:14:30;100468.03;;;14.61;100.00
3664;BME280;1848;51.042;7.066;2022-08-21T06:17:02;100474.63;;;14.65;100.00
3664;BME280;1848;51.042;7.066;2022-08-21T06:19:29;100473.78;;;14.71;100.00
3664;BME280;1848;51.042;7.066;2022-08-21T06:21:55;100478.50;;;14.76;100.00
3664;BME280;1848;51.042;7.066;2022-08-21T06:24:22;100448.72;;;14.64;100.00
3664;BME280;1848;51.042;7.066;2022-08-21T06:26:48;100471.00;;;14.84;100.00
3664;BME280;1848;51.042;7.066;2022-08-21T06:29:15;100470.97;;;14.91;100.00
3664;BME280;1848;51.042;7.066;2022-08-21T06:31:48;100469.50;;;14.95;100.00
3664;BME280;1848;51.042;7.066;2022-08-21T06:34:15;100469.69;;;15.00;100.00
3664;BME280;1848;51.042;7.066;2022-08-21T06:36:42;100468.19;;;15.05;100.00
3664;BME280;1848;51.042;7.066;2022-08-21T06:39:08;100466.31;;;15.05;100.00
3664;BME280;1848;51.042;7.066;2022-08-21T06:41:49;100451.41;;;15.09;100.00
3664;BME280;1848;51.042;7.066;2022-08-21T06:44:16;100467.28;;;15.17;100.00
3664;BME280;1848;51.042;7.066;2022-08-21T06:46:43;100466.44;;;15.24;100.00
3664;BME280;1848;51.042;7.066;2022-08-21T06:49:13;100470.97;;;15.30;100.00
3664;BME280;1848;51.042;7.066;2022-08-21T06:51:46;100471.72;;;15.37;100.00
3664;BME280;1848;51.042;7.066;2022-08-21T06:54:13;100476.66;;;15.40;100.00
3664;BME280;1848;51.042;7.066;2022-08-21T06:56:39;100466.03;;;15.45;99.79
3664;BME280;1848;51.042;7.066;2022-08-21T06:59:06;100462.91;;;15.48;100.00
3664;BME280;1848;51.042;7.066;2022-08-21T07:01:32;100474.84;;;15.59;100.00
3664;BME280;1848;51.042;7.066;2022-08-21T07:03:58;100467.78;;;15.65;99.72
3664;BME280;1848;51.042;7.066;2022-08-21T07:06:25;100477.44;;;15.72;100.00
3664;BME280;1848;51.042;7.066;2022-08-21T07:08:51;100473.91;;;15.79;99.00
3664;BME280;1848;51.042;7.066;2022-08-21T07:11:21;100485.44;;;15.86;97.82
3664;BME280;1848;51.042;7.066;2022-08-21T07:13:49;100475.03;;;15.89;96.96
3664;BME280;1848;51.042;7.066;2022-08-21T07:16:17;100474.81;;;15.91;94.67
3664;BME280;1848;51.042;7.066;2022-08-21T07:18:43;100479.34;;;15.97;95.24
3664;BME280;1848;51.042;7.066;2022-08-21T07:21:10;100479.25;;;16.04;95.14
3664;BME280;1848;51.042;7.066;2022-08-21T07:23:40;100476.06;;;16.13;95.96
3664;BME280;1848;51.042;7.066;2022-08-21T07:26:08;100463.00;;;16.10;96.22
3664;BME280;1848;51.042;7.066;2022-08-21T07:28:34;100462.50;;;16.20;95.53
3664;BME280;1848;51.042;7.066;2022-08-21T07:31:02;100483.47;;;16.37;91.38
3664;BME280;1848;51.042;7.066;2022-08-21T07:33:32;100478.69;;;16.39;91.88
3664;BME280;1848;51.042;7.066;2022-08-21T07:35:58;100486.47;;;16.47;92.73
3664;BME280;1848;51.042;7.066;2022-08-21T07:38:25;100480.19;;;16.53;91.47
3664;BME280;1848;51.042;7.066;2022-08-21T07:40:54;100486.69;;;16.64;91.18
3664;BME280;1848;51.042;7.066;2022-08-21T07:43:21;100490.97;;;16.71;90.61
3664;BME280;1848;51.042;7.066;2022-08-21T07:45:48;100485.25;;;16.80;91.08
3664;BME280;1848;51.042;7.066;2022-08-21T07:48:17;100490.38;;;16.88;87.29
3664;BME280;1848;51.042;7.066;2022-08-21T07:50:44;100493.94;;;17.00;87.16
3664;BME280;1848;51.042;7.066;2022-08-21T07:53:10;100482.72;;;17.15;88.04
3664;BME280;1848;51.042;7.066;2022-08-21T07:55:37;100478.41;;;17.26;87.52
3664;BME280;1848;51.042;7.066;2022-08-21T07:58:03;100457.72;;;17.20;88.94
3664;BME280;1848;51.042;7.066;2022-08-21T08:00:30;100468.31;;;17.33;86.70
3664;BME280;1848;51.042;7.066;2022-08-21T08:02:57;100479.28;;;17.50;87.43
3664;BME280;1848;51.042;7.066;2022-08-21T08:05:27;100472.84;;;17.63;88.25
3664;BME280;1848;51.042;7.066;2022-08-21T08:07:54;100470.28;;;17.68;85.55
3664;BME280;1848;51.042;7.066;2022-08-21T08:10:22;100483.91;;;17.73;85.02
3664;BME280;1848;51.042;7.066;2022-08-21T08:12:52;100487.91;;;17.82;80.80
3664;BME280;1848;51.042;7.066;2022-08-21T08:15:23;100484.66;;;17.92;82.10
3664;BME280;1848;51.042;7.066;2022-08-21T08:17:50;100482.53;;;18.06;81.55
3664;BME280;1848;51.042;7.066;2022-08-21T08:20:18;100478.75;;;18.19;81.50
3664;BME280;1848;51.042;7.066;2022-08-21T08:22:45;100480.88;;;18.29;85.08
3664;BME280;1848;51.042;7.066;2022-08-21T08:25:16;100478.38;;;18.39;82.57
3664;BME280;1848;51.042;7.066;2022-08-21T08:27:43;100474.56;;;18.52;82.04
3664;BME280;1848;51.042;7.066;2022-08-21T08:30:12;100469.03;;;18.58;79.56
3664;BME280;1848;51.042;7.066;2022-08-21T08:32:39;100467.72;;;18.61;78.36
3664;BME280;1848;51.042;7.066;2022-08-21T08:35:07;100476.88;;;18.72;77.37
3664;BME280;1848;51.042;7.066;2022-08-21T08:37:35;100471.78;;;18.75;77.67
3664;BME280;1848;51.042;7.066;2022-08-21T08:40:19;100470.72;;;18.88;79.79
3664;BME280;1848;51.042;7.066;2022-08-21T08:42:48;100474.22;;;19.01;77.05
3664;BME280;1848;51.042;7.066;2022-08-21T08:45:20;100469.78;;;19.11;75.50
3664;BME280;1848;51.042;7.066;2022-08-21T08:47:57;100456.66;;;19.20;76.22
3664;BME280;1848;51.042;7.066;2022-08-21T08:50:48;100461.09;;;19.43;72.37
3664;BME280;1848;51.042;7.066;2022-08-21T08:53:20;100456.41;;;19.56;73.17
3664;BME280;1848;51.042;7.066;2022-08-21T08:55:51;100460.22;;;19.88;70.44
3664;BME280;1848;51.042;7.066;2022-08-21T08:58:25;100460.31;;;20.16;71.07
3664;BME280;1848;51.042;7.066;2022-08-21T09:00:54;100462.13;;;20.49;71.28
3664;BME280;1848;51.042;7.066;2022-08-21T09:03:23;100434.78;;;20.56;65.86
3664;BME280;1848;51.042;7.066;2022-08-21T09:06:11;100460.22;;;20.94;65.21
3664;BME280;1848;51.042;7.066;2022-08-21T09:11:19;100455.41;;;21.33;63.31
3664;BME280;1848;51.042;7.066;2022-08-21T09:14:18;100452.22;;;21.74;63.92
3664;BME280;1848;51.042;7.066;2022-08-21T09:22:32;100442.59;;;22.62;60.02
3664;BME280;1848;51.042;7.066;2022-08-21T09:25:28;100436.97;;;22.99;57.79
3664;BME280;1848;51.042;7.066;2022-08-21T09:27:57;100441.38;;;23.16;56.46
3664;BME280;1848;51.042;7.066;2022-08-21T09:30:28;100433.19;;;23.41;55.92
3664;BME280;1848;51.042;7.066;2022-08-21T09:32:54;100439.19;;;23.85;58.18
3664;BME280;1848;51.042;7.066;2022-08-21T09:35:22;100436.91;;;24.17;54.31
3664;BME280;1848;51.042;7.066;2022-08-21T09:40:32;100438.72;;;24.43;53.55
3664;BME280;1848;51.042;7.066;2022-08-21T09:45:41;100450.88;;;25.16;50.13
3664;BME280;1848;51.042;7.066;2022-08-21T09:48:25;100435.34;;;25.45;49.22
3664;BME280;1848;51.042;7.066;2022-08-21T09:50:53;100440.00;;;25.74;45.89
3664;BME280;1848;51.042;7.066;2022-08-21T09:53:24;100430.31;;;26.11;47.38
3664;BME280;1848;51.042;7.066;2022-08-21T09:55:55;100431.44;;;26.34;45.86
3664;BME280;1848;51.042;7.066;2022-08-21T09:58:45;100430.06;;;26.75;46.95
3664;BME280;1848;51.042;7.066;2022-08-21T10:01:24;100431.19;;;27.12;44.78
3664;BME280;1848;51.042;7.066;2022-08-21T10:04:10;100425.75;;;27.59;43.58
3664;BME280;1848;51.042;7.066;2022-08-21T10:06:38;100425.19;;;27.89;43.61
3664;BME280;1848;51.042;7.066;2022-08-21T10:09:17;100424.56;;;28.48;42.12
3664;BME280;1848;51.042;7.066;2022-08-21T10:12:19;100425.88;;;28.64;40.27
3664;BME280;1848;51.042;7.066;2022-08-21T10:14:59;100427.38;;;28.71;40.81
3664;BME280;1848;51.042;7.066;2022-08-21T10:20:15;100424.47;;;28.90;40.96
3664;BME280;1848;51.042;7.066;2022-08-21T10:22:51;100412.66;;;28.89;40.47
3664;BME280;1848;51.042;7.066;2022-08-21T10:25:28;100414.53;;;29.25;37.83
3664;BME280;1848;51.042;7.066;2022-08-21T10:28:07;100405.69;;;29.14;39.39
3664;BME280;1848;51.042;7.066;2022-08-21T10:30:50;100411.44;;;29.18;38.84
3664;BME280;1848;51.042;7.066;2022-08-21T10:33:36;100407.22;;;28.98;38.16
3664;BME280;1848;51.042;7.066;2022-08-21T10:36:16;100418.09;;;29.48;38.92
3664;BME280;1848;51.042;7.066;2022-08-21T10:47:16;100414.22;;;30.29;36.00
3664;BME280;1848;51.042;7.066;2022-08-21T10:49:53;100408.44;;;30.40;36.18
3664;BME280;1848;51.042;7.066;2022-08-21T10:52:49;100410.50;;;30.34;35.17
3664;BME280;1848;51.042;7.066;2022-08-21T10:55:20;100406.81;;;29.90;35.17
3664;BME280;1848;51.042;7.066;2022-08-21T11:00:22;100394.50;;;29.87;37.03
3664;BME280;1848;51.042;7.066;2022-08-21T11:02:55;100404.28;;;30.20;34.24
3664;BME280;1848;51.042;7.066;2022-08-21T11:05:29;100396.84;;;30.11;34.35
3664;BME280;1848;51.042;7.066;2022-08-21T11:08:45;100396.44;;;30.53;34.38
3664;BME280;1848;51.042;7.066;2022-08-21T11:13:46;100401.47;;;29.93;36.03
3664;BME280;1848;51.042;7.066;2022-08-21T11:16:35;100400.66;;;29.93;33.69
3664;BME280;1848;51.042;7.066;2022-08-21T11:19:13;100398.09;;;30.05;34.09
3664;BME280;1848;51.042;7.066;2022-08-21T11:21:48;100395.59;;;30.35;34.63
3664;BME280;1848;51.042;7.066;2022-08-21T11:24:42;100394.81;;;30.43;34.84
3664;BME280;1848;51.042;7.066;2022-08-21T11:27:20;100391.88;;;30.48;35.40
3664;BME280;1848;51.042;7.066;2022-08-21T11:29:52;100388.00;;;30.67;33.49
3664;BME280;1848;51.042;7.066;2022-08-21T11:35:24;100376.94;;;30.41;33.85
3664;BME280;1848;51.042;7.066;2022-08-21T11:40:40;100354.50;;;30.16;33.54
3664;BME280;1848;51.042;7.066;2022-08-21T11:45:54;100384.38;;;30.31;32.18
3664;BME280;1848;51.042;7.066;2022-08-21T11:51:22;100374.84;;;30.73;33.98
3664;BME280;1848;51.042;7.066;2022-08-21T11:56:51;100375.66;;;30.82;31.23
3664;BME280;1848;51.042;7.066;2022-08-21T11:59:23;100361.88;;;30.47;32.34
3664;BME280;1848;51.042;7.066;2022-08-21T12:01:52;100377.78;;;30.59;32.43
3664;BME280;1848;51.042;7.066;2022-08-21T12:04:44;100366.41;;;30.69;31.74
3664;BME280;1848;51.042;7.066;2022-08-21T12:07:15;100375.50;;;30.43;33.39
3664;BME280;1848;51.042;7.066;2022-08-21T12:09:53;100365.75;;;30.37;31.79
3664;BME280;1848;51.042;7.066;2022-08-21T12:12:32;100365.19;;;30.09;33.01
3664;BME280;1848;51.042;7.066;2022-08-21T12:17:37;100366.25;;;30.74;31.43
3664;BME280;1848;51.042;7.066;2022-08-21T12:23:04;100362.34;;;30.66;31.01
3664;BME280;1848;51.042;7.066;2022-08-21T12:25:41;100358.63;;;30.54;33.03
3664;BME280;1848;51.042;7.066;2022-08-21T12:28:13;100354.84;;;30.32;31.42
3664;BME280;1848;51.042;7.066;2022-08-21T12:30:43;100349.97;;;30.29;31.97
3664;BME280;1848;51.042;7.066;2022-08-21T12:33:28;100343.50;;;30.42;32.05
3664;BME280;1848;51.042;7.066;2022-08-21T12:38:59;100344.56;;;29.57;34.32
3664;BME280;1848;51.042;7.066;2022-08-21T12:41:32;100353.72;;;29.75;34.44
3664;BME280;1848;51.042;7.066;2022-08-21T12:44:05;100340.94;;;29.39;34.50
3664;BME280;1848;51.042;7.066;2022-08-21T12:46:42;100359.72;;;28.92;34.87
3664;BME280;1848;51.042;7.066;2022-08-21T12:49:18;100356.22;;;28.78;35.80
3664;BME280;1848;51.042;7.066;2022-08-21T12:54:39;100355.25;;;29.19;35.34
3664;BME280;1848;51.042;7.066;2022-08-21T12:57:08;100348.16;;;29.04;36.38
3664;BME280;1848;51.042;7.066;2022-08-21T12:59:39;100353.47;;;29.00;36.71
3664;BME280;1848;51.042;7.066;2022-08-21T13:02:15;100348.50;;;29.11;37.22
3664;BME280;1848;51.042;7.066;2022-08-21T13:04:43;100352.91;;;29.12;34.16
3664;BME280;1848;51.042;7.066;2022-08-21T13:07:13;100343.97;;;29.07;34.12
3664;BME280;1848;51.042;7.066;2022-08-21T13:09:53;100349.09;;;28.99;34.77
3664;BME280;1848;51.042;7.066;2022-08-21T13:12:21;100338.28;;;28.80;34.74
3664;BME280;1848;51.042;7.066;2022-08-21T13:14:56;100335.84;;;28.79;37.02
3664;BME280;1848;51.042;7.066;2022-08-21T13:17:25;100340.09;;;28.85;37.10
3664;BME280;1848;51.042;7.066;2022-08-21T13:20:06;100339.13;;;29.12;35.49
3664;BME280;1848;51.042;7.066;2022-08-21T13:22:40;100341.16;;;29.20;34.79
3664;BME280;1848;51.042;7.066;2022-08-21T13:25:15;100334.50;;;29.21;34.55
3664;BME280;1848;51.042;7.066;2022-08-21T13:27:44;100334.44;;;29.13;33.80
3664;BME280;1848;51.042;7.066;2022-08-21T13:30:19;100336.34;;;28.81;35.83
3664;BME280;1848;51.042;7.066;2022-08-21T13:32:50;100329.50;;;28.78;35.96
3664;BME280;1848;51.042;7.066;2022-08-21T13:35:24;100331.69;;;28.90;35.14
3664;BME280;1848;51.042;7.066;2022-08-21T13:37:52;100333.09;;;29.01;35.13
3664;BME280;1848;51.042;7.066;2022-08-21T13:40:30;100326.19;;;28.90;34.81
3664;BME280;1848;51.042;7.066;2022-08-21T13:42:59;100332.25;;;29.01;34.87
3664;BME280;1848;51.042;7.066;2022-08-21T13:45:31;100326.81;;;29.10;35.68
3664;BME280;1848;51.042;7.066;2022-08-21T13:48:00;100332.00;;;29.11;33.90
3664;BME280;1848;51.042;7.066;2022-08-21T13:50:33;100323.94;;;29.15;34.16
3664;BME280;1848;51.042;7.066;2022-08-21T13:53:04;100333.66;;;28.90;34.64
3664;BME280;1848;51.042;7.066;2022-08-21T13:55:42;100331.41;;;28.69;35.81
3664;BME280;1848;51.042;7.066;2022-08-21T13:58:11;100329.38;;;28.61;34.95
3664;BME280;1848;51.042;7.066;2022-08-21T14:00:46;100317.38;;;28.20;34.99
3664;BME280;1848;51.042;7.066;2022-08-21T14:03:34;100303.97;;;27.77;36.14
3664;BME280;1848;51.042;7.066;2022-08-21T14:06:13;100324.31;;;28.04;37.10
3664;BME280;1848;51.042;7.066;2022-08-21T14:08:41;100323.03;;;28.01;36.43
3664;BME280;1848;51.042;7.066;2022-08-21T14:11:12;100311.59;;;28.08;36.76
3664;BME280;1848;51.042;7.066;2022-08-21T14:13:48;100310.78;;;28.07;36.48
3664;BME280;1848;51.042;7.066;2022-08-21T14:16:21;100307.44;;;27.97;35.56
3664;BME280;1848;51.042;7.066;2022-08-21T14:19:10;100306.34;;;27.70;35.19